sensor_id;sensor_type;location;lat;lon;timestamp;pressure;altitude;pressure_sealevel;temperature;humidity
47742;BME280;33504;52.066;6.096;2023-03-14T18:40:23;100767.64;;;8.52;33.19
47742;BME280;33504;52.066;6.096;2023-03-14T18:42:49;100773.70;;;6.38;32.83
47742;BME280;33504;52.066;6.096;2023-03-14T18:45:15;100781.83;;;7.30;31.85
47742;BME280;33504;52.066;6.096;2023-03-14T18:47:41;100780.20;;;7.68;31.07
47742;BME280;33504;52.066;6.096;2023-03-14T18:50:09;100785.49;;;8.25;30.73
47742;BME280;33504;52.066;6.096;2023-03-14T18:52:35;100787.69;;;8.19;30.18
47742;BME280;33504;52.066;6.096;2023-03-14T18:55:02;100793.06;;;8.41;29.98
47742;BME280;33504;52.066;6.096;2023-03-14T18:57:28;100796.59;;;8.47;29.87
47742;BME280;33504;52.066;6.096;2023-03-14T18:59:54;100796.66;;;8.35;29.69
47742;BME280;33504;52.066;6.096;2023-03-14T19:02:20;100803.91;;;8.52;29.57
47742;BME280;33504;52.066;6.096;2023-03-14T19:04:46;100804.94;;;8.90;29.54
47742;BME280;33504;52.066;6.096;2023-03-14T19:07:12;100808.79;;;8.71;29.68
47742;BME280;33504;52.066;6.096;2023-03-14T19:09:38;100814.59;;;8.63;29.41
47742;BME280;33504;52.066;6.096;2023-03-14T19:12:04;100819.60;;;8.91;29.66
47742;BME280;33504;52.066;6.096;2023-03-14T19:14:30;100823.23;;;8.99;29.80
47742;BME280;33504;52.066;6.096;2023-03-14T19:16:57;100825.56;;;8.84;29.49
47742;BME280;33504;52.066;6.096;2023-03-14T19:19:23;100824.73;;;9.10;29.56
47742;BME280;33504;52.066;6.096;2023-03-14T19:21:49;100826.45;;;9.14;29.56
47742;BME280;33504;52.066;6.096;2023-03-14T19:24:17;100824.70;;;9.15;29.69
47742;BME280;33504;52.066;6.096;2023-03-14T19:26:44;100827.05;;;8.92;29.72
47742;BME280;33504;52.066;6.096;2023-03-14T19:29:10;100832.60;;;8.83;29.37
47742;BME280;33504;52.066;6.096;2023-03-14T19:31:36;100834.36;;;8.99;29.40
47742;BME280;33504;52.066;6.096;2023-03-14T19:34:03;100841.76;;;8.98;29.66
47742;BME280;33504;52.066;6.096;2023-03-14T19:36:31;100846.05;;;8.85;29.46
47742;BME280;33504;52.066;6.096;2023-03-14T19:38:58;100845.37;;;8.65;29.46
47742;BME280;33504;52.066;6.096;2023-03-14T19:41:25;100847.65;;;8.57;29.62
47742;BME280;33504;52.066;6.096;2023-03-14T19:43:51;100843.19;;;8.46;29.59
47742;BME280;33504;52.066;6.096;2023-03-14T19:46:18;100843.80;;;8.39;29.76
47742;BME280;33504;52.066;6.096;2023-03-14T19:48:44;100843.51;;;8.60;29.86
47742;BME280;33504;52.066;6.096;2023-03-14T19:51:10;100844.90;;;8.56;29.94
47742;BME280;33504;52.066;6.096;2023-03-14T19:53:37;100849.17;;;8.30;29.94
47742;BME280;33504;52.066;6.096;2023-03-14T19:56:04;100852.80;;;8.07;29.89
47742;BME280;33504;52.066;6.096;2023-03-14T19:58:30;100852.25;;;8.03;30.13
47742;BME280;33504;52.066;6.096;2023-03-14T20:00:56;100844.79;;;8.01;30.26
47742;BME280;33504;52.066;6.096;2023-03-14T20:03:22;100841.52;;;8.17;30.11
47742;BME280;33504;52.066;6.096;2023-03-14T20:05:49;100840.66;;;7.85;30.14
47742;BME280;33504;52.066;6.096;2023-03-14T20:08:15;100840.08;;;7.76;30.49
47742;BME280;33504;52.066;6.096;2023-03-14T20:10:42;100844.00;;;7.74;30.29
47742;BME280;33504;52.066;6.096;2023-03-14T20:13:10;100847.55;;;7.89;30.26
47742;BME280;33504;52.066;6.096;2023-03-14T20:15:37;100847.16;;;7.86;30.55
47742;BME280;33504;52.066;6.096;2023-03-14T20:18:04;100851.96;;;7.79;30.71
47742;BME280;33504;52.066;6.096;2023-03-14T20:20:30;100856.26;;;7.75;30.68
47742;BME280;33504;52.066;6.096;2023-03-14T20:22:56;100860.92;;;7.64;30.63
47742;BME280;33504;52.066;6.096;2023-03-14T20:25:22;100856.67;;;7.20;30.44
47742;BME280;33504;52.066;6.096;2023-03-14T20:27:50;100857.24;;;7.62;30.41
47742;BME280;33504;52.066;6.096;2023-03-14T20:30:18;100860.23;;;7.64;30.72
47742;BME280;33504;52.066;6.096;2023-03-14T20:32:44;100863.76;;;7.28;30.68
47742;BME280;33504;52.066;6.096;2023-03-14T20:35:11;100868.75;;;7.51;30.65
47742;BME280;33504;52.066;6.096;2023-03-14T20:37:38;100873.67;;;7.21;30.67
47742;BME280;33504;52.066;6.096;2023-03-14T20:40:06;100873.43;;;7.39;30.79
47742;BME280;33504;52.066;6.096;2023-03-14T20:42:32;100869.70;;;7.12;30.55
47742;BME280;33504;52.066;6.096;2023-03-14T20:44:59;100868.15;;;7.23;30.59
47742;BME280;33504;52.066;6.096;2023-03-14T20:47:25;100875.66;;;7.30;30.78
47742;BME280;33504;52.066;6.096;2023-03-14T20:49:52;100877.43;;;7.15;30.46
47742;BME280;33504;52.066;6.096;2023-03-14T20:52:18;100877.86;;;7.24;30.83
47742;BME280;33504;52.066;6.096;2023-03-14T20:54:44;100885.14;;;7.32;30.76
47742;BME280;33504;52.066;6.096;2023-03-14T20:57:10;100893.38;;;6.97;30.98
47742;BME280;33504;52.066;6.096;2023-03-14T20:59:36;100899.93;;;7.02;30.92
47742;BME280;33504;52.066;6.096;2023-03-14T21:02:03;100911.95;;;6.97;31.22
47742;BME280;33504;52.066;6.096;2023-03-14T21:04:29;100924.41;;;7.03;31.42
47742;BME280;33504;52.066;6.096;2023-03-14T21:06:55;100914.52;;;6.27;32.15
47742;BME280;33504;52.066;6.096;2023-03-14T21:09:21;100916.53;;;6.45;32.83
47742;BME280;33504;52.066;6.096;2023-03-14T21:11:47;100929.94;;;6.37;33.61
47742;BME280;33504;52.066;6.096;2023-03-14T21:14:13;100940.29;;;6.04;33.99
47742;BME280;33504;52.066;6.096;2023-03-14T21:16:40;100948.40;;;6.37;34.08
47742;BME280;33504;52.066;6.096;2023-03-14T21:19:06;100932.15;;;6.26;34.82
47742;BME280;33504;52.066;6.096;2023-03-14T21:21:32;100930.11;;;6.50;34.94
47742;BME280;33504;52.066;6.096;2023-03-14T21:23:58;100910.17;;;6.28;35.92
47742;BME280;33504;52.066;6.096;2023-03-14T21:26:24;100901.86;;;6.42;35.97
47742;BME280;33504;52.066;6.096;2023-03-14T21:28:50;100907.65;;;6.53;36.00
47742;BME280;33504;52.066;6.096;2023-03-14T21:31:16;100909.18;;;6.91;35.72
47742;BME280;33504;52.066;6.096;2023-03-14T21:33:42;100913.69;;;6.80;35.53
47742;BME280;33504;52.066;6.096;2023-03-14T21:36:09;100921.99;;;6.29;35.76
47742;BME280;33504;52.066;6.096;2023-03-14T21:38:35;100920.74;;;6.78;35.04
47742;BME280;33504;52.066;6.096;2023-03-14T21:41:01;100920.24;;;6.98;34.99
47742;BME280;33504;52.066;6.096;2023-03-14T21:43:27;100917.35;;;6.60;34.06
47742;BME280;33504;52.066;6.096;2023-03-14T21:45:54;100917.76;;;6.34;34.74
47742;BME280;33504;52.066;6.096;2023-03-14T21:48:20;100918.26;;;6.62;34.34
47742;BME280;33504;52.066;6.096;2023-03-14T21:50:47;100918.57;;;5.74;34.68
47742;BME280;33504;52.066;6.096;2023-03-14T21:53:14;100923.69;;;5.78;34.89
47742;BME280;33504;52.066;6.096;2023-03-14T21:55:40;100922.65;;;6.33;34.73
47742;BME280;33504;52.066;6.096;2023-03-14T21:58:07;100918.35;;;6.41;34.22
47742;BME280;33504;52.066;6.096;2023-03-14T22:00:33;100911.62;;;6.05;34.40
47742;BME280;33504;52.066;6.096;2023-03-14T22:03:00;100913.22;;;5.76;34.84
47742;BME280;33504;52.066;6.096;2023-03-14T22:05:26;100915.08;;;5.76;35.12
47742;BME280;33504;52.066;6.096;2023-03-14T22:07:52;100909.34;;;5.97;35.20
47742;BME280;33504;52.066;6.096;2023-03-14T22:10:20;100911.53;;;5.69;35.81
47742;BME280;33504;52.066;6.096;2023-03-14T22:12:46;100910.53;;;6.64;36.73
47742;BME280;33504;52.066;6.096;2023-03-14T22:15:13;100909.32;;;6.30;37.32
47742;BME280;33504;52.066;6.096;2023-03-14T22:17:40;100906.99;;;6.13;38.12
47742;BME280;33504;52.066;6.096;2023-03-14T22:20:09;100909.95;;;5.90;38.91
47742;BME280;33504;52.066;6.096;2023-03-14T22:22:36;100918.79;;;5.70;39.85
47742;BME280;33504;52.066;6.096;2023-03-14T22:25:04;100926.14;;;5.48;39.90
47742;BME280;33504;52.066;6.096;2023-03-14T22:27:31;100925.06;;;5.54;40.52
47742;BME280;33504;52.066;6.096;2023-03-14T22:29:59;100923.76;;;5.54;40.73
47742;BME280;33504;52.066;6.096;2023-03-14T22:32:26;100929.05;;;5.39;41.43
47742;BME280;33504;52.066;6.096;2023-03-14T22:34:53;100929.74;;;5.81;41.43
47742;BME280;33504;52.066;6.096;2023-03-14T22:37:20;100922.42;;;5.64;41.82
47742;BME280;33504;52.066;6.096;2023-03-14T22:39:47;100930.31;;;5.61;41.67
47742;BME280;33504;52.066;6.096;2023-03-14T22:42:14;100933.74;;;5.54;41.80
47742;BME280;33504;52.066;6.096;2023-03-14T22:44:41;100929.18;;;5.31;41.92
47742;BME280;33504;52.066;6.096;2023-03-14T22:47:08;100924.99;;;5.88;41.80
47742;BME280;33504;52.066;6.096;2023-03-14T22:49:35;100926.05;;;5.29;42.19
47742;BME280;33504;52.066;6.096;2023-03-14T22:52:03;100933.66;;;6.11;41.56
47742;BME280;33504;52.066;6.096;2023-03-14T22:54:29;100948.16;;;5.67;41.59
47742;BME280;33504;52.066;6.096;2023-03-14T22:56:57;100962.56;;;6.09;41.49
47742;BME280;33504;52.066;6.096;2023-03-14T22:59:24;100968.89;;;5.86;41.56
47742;BME280;33504;52.066;6.096;2023-03-14T23:01:51;100971.57;;;6.11;41.38
47742;BME280;33504;52.066;6.096;2023-03-14T23:04:18;100981.03;;;6.05;41.73
47742;BME280;33504;52.066;6.096;2023-03-14T23:06:45;100991.10;;;6.00;41.82
47742;BME280;33504;52.066;6.096;2023-03-14T23:09:12;101002.79;;;5.98;41.85
47742;BME280;33504;52.066;6.096;2023-03-14T23:11:39;101011.02;;;5.70;42.94
47742;BME280;33504;52.066;6.096;2023-03-14T23:14:06;101018.80;;;5.44;42.54
47742;BME280;33504;52.066;6.096;2023-03-14T23:16:33;101023.63;;;5.75;42.33
47742;BME280;33504;52.066;6.096;2023-03-14T23:19:00;101031.14;;;5.73;42.91
47742;BME280;33504;52.066;6.096;2023-03-14T23:21:27;101035.17;;;5.28;44.26
47742;BME280;33504;52.066;6.096;2023-03-14T23:23:55;101035.01;;;5.15;44.30
47742;BME280;33504;52.066;6.096;2023-03-14T23:26:24;101037.61;;;5.02;44.58
47742;BME280;33504;52.066;6.096;2023-03-14T23:28:52;101037.82;;;5.03;44.58
47742;BME280;33504;52.066;6.096;2023-03-14T23:31:20;101040.49;;;5.14;44.90
47742;BME280;33504;52.066;6.096;2023-03-14T23:33:49;101038.29;;;5.02;45.20
47742;BME280;33504;52.066;6.096;2023-03-14T23:36:17;101040.57;;;4.71;45.26
47742;BME280;33504;52.066;6.096;2023-03-14T23:38:45;101038.21;;;4.93;45.02
47742;BME280;33504;52.066;6.096;2023-03-14T23:41:13;101036.83;;;4.80;45.55
47742;BME280;33504;52.066;6.096;2023-03-14T23:43:41;101035.13;;;4.75;45.69
47742;BME280;33504;52.066;6.096;2023-03-14T23:46:09;101030.93;;;4.81;46.01
47742;BME280;33504;52.066;6.096;2023-03-14T23:48:37;101033.91;;;4.41;46.73
47742;BME280;33504;52.066;6.096;2023-03-14T23:51:07;101033.07;;;5.01;45.89
47742;BME280;33504;52.066;6.096;2023-03-14T23:53:34;101037.63;;;4.84;45.67
47742;BME280;33504;52.066;6.096;2023-03-14T23:56:02;101036.95;;;4.83;46.10
47742;BME280;33504;52.066;6.096;2023-03-14T23:58:30;101041.02;;;4.75;46.21
